KBOI/BOI METAR and TAF weather

Enter ICAO airport designator
Station Type Date Time Source
KBOI METAR 2019/12/12 11:53 UTC NOAA

KBOI 121153Z 13007KT 10SM -RA OVC044 05/03 A3003 RMK AO2 SLP178 P0004 60020 70024 T00500033 10056 20044 57002


Station Type Date Time Source
KBOI Decoded METAR 2019/12/12 11:53 UTC NOAA

BOISE AIR TERMINAL, ID, United States (KBOI) 43-34N 116-14W 875M
Dec 12, 2019 - 06:53 AM EST / 2019.12.12 1153 UTC
Wind: from the SE (130 degrees) at 8 MPH (7 KT):0
Visibility: 10 mile(s):0
Sky conditions: overcast
Weather: light rain
Precipitation last hour: 0.04 inches
Temperature: 41.0 F (5.0 C)
Dew Point: 37.9 F (3.3 C)
Relative Humidity: 88%
Pressure (altimeter): 30.03 in. Hg (1016 hPa)
Pressure tendency: 0.01 inches (0.2 hPa) lower than three hours ago
ob: KBOI 121153Z 13007KT 10SM -RA OVC044 05/03 A3003 RMK AO2 SLP178 P0004 60020 70024 T00500033 10056 20044 57002
cycle: 12

Station Type Date Time Source
KBOI TAF 2019/12/12 12:22 UTC NOAA

TAF KBOI 121120Z 1212/1312 12010KT 6SM -RA BR OVC040
FM122100 VRB05KT P6SM -SHRA SCT025 BKN050
FM130500 VRB05KT P6SM OVC060

Example: see airport list